Relevés horaires Bierset (Belgique)


Relevés horaires à Bierset - Dimanche 24 Sept. 2023
Heure UTC1 Température [°C] Vent [km/h] Hum. [%] Pres.4 [hPa] Visi. [Km] Nébu. [octa] Préc.5 [mm] Cond.
2m. Res. Ros. Dir.2 Vit. Moy. Raf.3
23:00 12.3 12.3 7.1 S 3.7 9.3 16.7 71 1022.4(-1.1/3h) 30 4/8 -- --
22:00 12.6 12.2 7.8 SSE 7.4 7.4 16.7 73 1022.7(-1.2/3h) 30 2/8 -- --
21:00 13.1 13.1 8.6 SSE 5.6 5.6 14.8 74 1023.1(-0.7/3h) 30 1/8 -- --
20:00 13.4 13.4 8.8 SE 5.6 5.6 13.0 74 1023.5(-0.3/3h) 30 1/8 -- --
19:00 14.6 14.6 8.5 SE 3.7 5.6 9.3 67 1023.7(-0.1/3h) 30 1/8 -- --
18:00 16.2 16.2 8.0 SSE 5.6 11.1 18.5 58 1023.5(-0.2/3h) 30 1/8 0/12h
--
17:00 17.8 17.8 7.7 S 5.6 7.4 16.7 52 1023.5(-0.7/3h) 30 1/8 -- --
16:00 18.8 18.8 6.7 S 7.4 11.1 18.5 45 1023.3(-1.3/3h) 30 0/8 -- --
15:00 19.0 19.0 6.9 SSE 7.4 11.1 16.7 45 1023.5(-1.3/3h) 30 1/8 -- --
14:00 19.0 19.0 7.1 S 9.3 11.1 16.7 46 1024.1(-1.1/3h) 30 1/8 -- --
13:00 18.5 18.5 7.5 S 9.3 11.1 16.7 49 1024.6(-1.2/3h) 30 1/8 -- --
12:00 18.1 18.1 8.1 S 11.1 13.0 22.2 52 1024.9(-1.3/3h) 30 1/8 0/6h
--
11:00 17.4 17.2 7.9 S 13.0 13.0 16.7 54 1025.3(-0.9/3h) 30 1/8 -- --
10:00 15.9 15.8 8.6 S 9.3 11.1 22.2 62 1026(0.0/3h) 30 1/8 -- --
09:00 14.4 14.3 9.4 S 7.4 9.3 22.2 72 1026.6(1.0/3h) 30 1/8 -- --
08:00 11.8 11.2 8.4 S 7.4 9.3 14.8 80 1026.6(1.1/3h) 30 1/8 -- --
07:00 9.8 8.5 7.6 SSE 9.3 9.3 22.2 86 1026.5(1.0/3h) 30 1/8 -- --
06:00 9.1 7.7 7.2 SSE 9.3 9.3 22.2 88 1026(0.9/3h) 30 1/8 0/12h
--
05:00 9.2 8.2 7.4 SSE 7.4 9.3 16.7 88 1025.7(0.9/3h) 30 2/8 -- --
04:00 8.8 8.2 7.6 SSE 5.6 7.4 14.8 92 1025.5(0.6/3h) 30 1/8 -- --
03:00 9.2 8.7 7.8 SSE 5.6 7.4 14.8 91 1025(0.5/3h) 30 1/8 -- --
02:00 9.4 8.9 8.0 SSE 5.6 7.4 7.4 91 1024.8(0.7/3h) 30 1/8 -- --
01:00 10.1 10.1 7.9 S 3.7 5.6 14.8 86 1024.7(0.9/3h) 30 1/8 -- --
00:00 9.7 9.2 8.4 SE 5.6 5.6 14.8 92 1024.5(1.2/3h) 30 1/8 0/6h
0/24h
--

1 Coordinated Universal Time. Actuellement il est 11:00 locale et 09:00 UTC.

2 Le vent souffle depuis la direction indiquée vers la direction oposée.

3 Les rafales max. sont disponible 40 min après l'heure du relevé.

4 Pour les stations d'altitude (plus de 600m) le géopotentiel du niveau le plus proche de la pression obligatoire est indiqué.

5 Les stations disposant d'un diffuseur peuvent indiquer "trace". Cela signifie que des précipitations ont touchés le sol mais que la quantité est inférieure à 0.1 mm.

Récapitulatif de la journée
Température [°C] Vent [km/h] Ensoleillement4 [h] Precipitations totale5 [mm] Pression [Hpa]
Min1 Max.2 Moy.3 Max. Min Max.
8.7 19.3 8.9 22.2 0 h 0 min 0 1022.4 1026.6

1 Température minimale relevée entre 18:00 UTC la veille et 18:00 UTC le jour donné.

2 Température maximale relevée entre 06:00 UTC le jour donné et 06:00 UTC le lendemain.

3 Vent moyen de la journée basé sur les relevés horaires.

4 Ensoleillement en heures relevé entre 06:00 UTC la veille et 06:00 UTC le jour donné.

5 Précipitations totales tombées entre 06:00 UTC la jour donné et 06:00 UTC le lendemain.

Graphiques horaires